createdAt,value
2023-05-04T00:00:31.461Z,8.94
2023-05-04T00:05:31.555Z,8.91
2023-05-04T00:10:31.517Z,8.83
2023-05-04T00:15:31.355Z,8.79
2023-05-04T00:20:31.190Z,8.73
2023-05-04T00:25:31.219Z,8.62
2023-05-04T00:30:31.197Z,8.58
2023-05-04T00:35:31.114Z,8.58
2023-05-04T00:40:31.009Z,8.44
2023-05-04T00:45:30.945Z,8.34
2023-05-04T00:50:31.039Z,8.26
2023-05-04T00:55:30.845Z,8.26
2023-05-04T01:00:30.945Z,8.23
2023-05-04T01:05:31.891Z,8.16
2023-05-04T01:10:30.801Z,8.07
2023-05-04T01:15:30.636Z,8.10
2023-05-04T01:20:30.788Z,8.07
2023-05-04T01:25:30.485Z,8.01
2023-05-04T01:30:30.547Z,7.95
2023-05-04T01:35:30.481Z,7.89
2023-05-04T01:40:30.335Z,7.82
2023-05-04T01:45:30.311Z,7.75
2023-05-04T01:50:30.255Z,7.72
2023-05-04T01:55:30.190Z,7.68
2023-05-04T02:00:30.324Z,7.67
2023-05-04T02:05:31.166Z,7.69
2023-05-04T02:10:30.153Z,7.71
2023-05-04T02:15:29.984Z,7.72
2023-05-04T02:20:29.926Z,7.72
2023-05-04T02:25:29.866Z,7.67
2023-05-04T02:30:29.798Z,7.61
2023-05-04T02:35:29.993Z,7.53
2023-05-04T02:40:29.716Z,7.46
2023-05-04T02:45:29.891Z,7.40
2023-05-04T02:50:29.599Z,7.35
2023-05-04T02:55:29.572Z,7.30
2023-05-04T03:00:29.594Z,7.12
2023-05-04T03:05:29.500Z,7.10
2023-05-04T03:10:29.475Z,7.09
2023-05-04T03:15:29.340Z,7.06
2023-05-04T03:20:29.464Z,7.03
2023-05-04T03:25:29.400Z,7.02
2023-05-04T03:30:29.175Z,6.91
2023-05-04T03:35:29.184Z,6.91
2023-05-04T03:40:29.039Z,6.91
2023-05-04T03:45:29.033Z,6.91
2023-05-04T03:50:28.941Z,6.99
2023-05-04T03:55:28.900Z,6.99
2023-05-04T04:00:29.056Z,6.95
2023-05-04T04:05:28.881Z,6.99
2023-05-04T04:10:28.837Z,6.97
2023-05-04T04:15:28.759Z,6.80
2023-05-04T04:20:32.098Z,6.80
2023-05-04T04:25:28.673Z,6.79
2023-05-04T04:30:28.559Z,6.71
2023-05-04T04:35:28.474Z,6.77
2023-05-04T04:40:28.405Z,6.87
2023-05-04T04:45:28.367Z,6.94
2023-05-04T04:50:28.326Z,7.10
2023-05-04T04:55:28.395Z,7.17
2023-05-04T05:00:28.357Z,7.28
2023-05-04T05:05:29.164Z,7.16
2023-05-04T05:10:28.335Z,7.21
2023-05-04T05:15:28.250Z,7.30
2023-05-04T05:20:27.994Z,7.46
2023-05-04T05:25:27.953Z,7.69
2023-05-04T05:30:27.852Z,7.95
2023-05-04T05:35:27.812Z,8.33
2023-05-04T05:40:27.775Z,8.74
2023-05-04T05:45:27.746Z,9.29
2023-05-04T05:50:27.854Z,9.76
2023-05-04T05:55:27.791Z,10.26
2023-05-04T06:00:27.689Z,10.76
2023-05-04T06:05:27.515Z,11.14
2023-05-04T06:10:27.447Z,11.49
2023-05-04T06:15:36.234Z,12.31
2023-05-04T06:20:27.398Z,12.35
2023-05-04T06:25:27.300Z,12.67
2023-05-04T06:30:36.628Z,13.20
2023-05-04T06:35:27.239Z,13.48
2023-05-04T06:40:27.129Z,13.62
2023-05-04T06:45:27.223Z,13.97
2023-05-04T06:50:27.149Z,14.46
2023-05-04T06:55:27.013Z,14.84
2023-05-04T07:00:27.071Z,15.19
2023-05-04T07:05:26.915Z,15.74
2023-05-04T07:10:26.888Z,16.11
2023-05-04T07:15:26.718Z,16.93
2023-05-04T07:20:26.735Z,17.21
2023-05-04T07:25:26.610Z,17.75
2023-05-04T07:30:26.604Z,18.11
2023-05-04T07:35:26.581Z,18.45
2023-05-04T07:40:26.485Z,19.25
2023-05-04T07:45:26.519Z,19.50
2023-05-04T07:50:26.366Z,19.65
2023-05-04T07:55:26.427Z,19.74
2023-05-04T08:00:26.221Z,19.73
2023-05-04T08:05:26.216Z,19.91
2023-05-04T08:10:26.150Z,20.33
2023-05-04T08:15:26.109Z,20.80
2023-05-04T08:20:26.216Z,21.37
2023-05-04T08:25:26.082Z,21.43
2023-05-04T08:30:25.949Z,21.90
2023-05-04T08:35:25.895Z,21.83
2023-05-04T08:40:25.851Z,21.59
2023-05-04T08:45:25.822Z,22.09
2023-05-04T08:50:25.749Z,21.71
2023-05-04T08:55:25.707Z,21.67
2023-05-04T09:00:25.767Z,22.46
2023-05-04T09:05:25.636Z,22.09
2023-05-04T09:10:29.383Z,22.62
2023-05-04T09:15:25.497Z,22.82
2023-05-04T09:20:25.445Z,22.95
2023-05-04T09:25:25.408Z,23.20
2023-05-04T09:30:25.311Z,23.33
2023-05-04T09:35:32.529Z,22.72
2023-05-04T09:40:26.252Z,23.57
2023-05-04T09:45:25.217Z,24.06
2023-05-04T09:50:26.118Z,23.58
2023-05-04T09:55:25.077Z,23.60
2023-05-04T10:00:25.096Z,23.58
2023-05-04T10:05:24.992Z,24.20
2023-05-04T10:10:24.937Z,24.39
2023-05-04T10:15:24.895Z,24.64
2023-05-04T10:20:24.768Z,24.62
2023-05-04T10:25:24.844Z,25.03
2023-05-04T10:30:24.723Z,25.00
2023-05-04T10:35:25.699Z,25.13
2023-05-04T10:40:24.713Z,24.96
2023-05-04T10:45:24.630Z,25.27
2023-05-04T10:50:24.577Z,26.01
2023-05-04T10:55:24.472Z,25.77
2023-05-04T11:00:24.405Z,25.15
2023-05-04T11:05:24.444Z,25.38
2023-05-04T11:10:24.336Z,25.98
2023-05-04T11:15:24.369Z,25.45
2023-05-04T11:20:24.272Z,26.20
2023-05-04T11:25:24.219Z,26.47
2023-05-04T11:30:24.233Z,26.15
2023-05-04T11:35:24.114Z,26.81
2023-05-04T11:40:24.055Z,27.10
2023-05-04T11:45:24.071Z,26.23
2023-05-04T11:50:23.961Z,25.92
2023-05-04T11:55:24.942Z,26.77
2023-05-04T12:00:23.926Z,26.99
2023-05-04T12:05:23.879Z,25.98
2023-05-04T12:10:23.799Z,26.57
2023-05-04T12:15:23.742Z,26.40
2023-05-04T12:20:23.702Z,26.55
2023-05-04T12:25:23.659Z,27.12
2023-05-04T12:30:23.702Z,27.25
2023-05-04T12:35:32.504Z,27.55
2023-05-04T12:40:28.705Z,27.21
2023-05-04T12:45:24.477Z,27.75
2023-05-04T12:50:23.455Z,27.21
2023-05-04T12:55:25.329Z,27.22
2023-05-04T13:00:23.326Z,26.91
2023-05-04T13:05:23.259Z,27.46
2023-05-04T13:10:23.186Z,27.72
2023-05-04T13:15:23.170Z,27.96
2023-05-04T13:20:23.193Z,27.57
2023-05-04T13:25:23.105Z,27.34
2023-05-04T13:30:23.048Z,27.96
2023-05-04T13:35:23.070Z,27.07
2023-05-04T13:40:23.034Z,27.66
2023-05-04T13:45:22.964Z,27.32
2023-05-04T13:50:22.803Z,27.22
2023-05-04T13:55:22.831Z,27.13
2023-05-04T14:00:22.751Z,27.27
2023-05-04T14:05:22.702Z,27.39
2023-05-04T14:10:22.835Z,28.30
2023-05-04T14:15:22.854Z,28.37
2023-05-04T14:20:22.673Z,28.64
2023-05-04T14:25:22.538Z,27.66
2023-05-04T14:30:24.572Z,26.94
2023-05-04T14:35:22.481Z,27.22
2023-05-04T14:40:22.332Z,27.00
2023-05-04T14:45:22.259Z,27.34
2023-05-04T14:50:22.230Z,27.63
2023-05-04T14:55:22.220Z,28.04
2023-05-04T15:00:22.293Z,27.78
2023-05-04T15:05:22.070Z,27.07
2023-05-04T15:10:22.100Z,27.32
2023-05-04T15:15:22.093Z,27.03
2023-05-04T15:20:22.020Z,27.18
2023-05-04T15:25:21.864Z,27.12
2023-05-04T15:30:21.853Z,27.18
2023-05-04T15:35:21.766Z,27.04
2023-05-04T15:40:21.879Z,27.10
2023-05-04T15:45:21.692Z,26.76
2023-05-04T15:50:21.690Z,26.57
2023-05-04T15:55:25.480Z,26.30
2023-05-04T16:00:21.533Z,25.99
2023-05-04T16:05:21.443Z,26.26
2023-05-04T16:10:21.417Z,26.02
2023-05-04T16:15:21.362Z,26.29
2023-05-04T16:20:22.436Z,25.82
2023-05-04T16:25:21.541Z,25.91
2023-05-04T16:30:21.301Z,25.75
2023-05-04T16:35:21.146Z,25.61
2023-05-04T16:40:21.075Z,26.05
2023-05-04T16:45:21.083Z,25.98
2023-05-04T16:50:21.008Z,26.06
2023-05-04T16:55:20.919Z,25.70
2023-05-04T17:00:20.928Z,25.60
2023-05-04T17:05:20.884Z,25.79
2023-05-04T17:10:20.838Z,25.21
2023-05-04T17:15:20.729Z,25.36
2023-05-04T17:20:20.646Z,25.42
2023-05-04T17:25:20.592Z,25.08
2023-05-04T17:30:20.580Z,24.68
2023-05-04T17:35:25.939Z,24.65
2023-05-04T17:40:21.608Z,24.61
2023-05-04T17:45:20.454Z,24.62
2023-05-04T17:50:20.363Z,24.34
2023-05-04T17:55:20.388Z,24.15
2023-05-04T18:00:20.215Z,24.03
2023-05-04T18:05:20.265Z,24.06
2023-05-04T18:10:20.148Z,23.87
2023-05-04T18:15:20.137Z,23.73
2023-05-04T18:20:20.091Z,23.54
2023-05-04T18:25:20.058Z,23.38
2023-05-04T18:30:19.939Z,23.07
2023-05-04T18:35:19.845Z,23.05
2023-05-04T18:40:19.784Z,22.86
2023-05-04T18:45:19.738Z,22.77
2023-05-04T18:50:19.699Z,22.52
2023-05-04T18:55:19.684Z,22.65
2023-05-04T19:00:19.603Z,22.60
2023-05-04T19:05:19.536Z,22.33
2023-05-04T19:10:19.598Z,22.21
2023-05-04T19:15:19.468Z,22.09
2023-05-04T19:20:19.622Z,21.91
2023-05-04T19:25:30.994Z,21.75
2023-05-04T19:30:20.334Z,21.56
2023-05-04T19:35:19.305Z,21.40
2023-05-04T19:40:19.153Z,20.97
2023-05-04T19:45:19.109Z,20.89
2023-05-04T19:50:27.915Z,21.03
2023-05-04T19:55:19.044Z,20.57
2023-05-04T20:00:18.961Z,20.35
2023-05-04T20:05:18.909Z,20.26
2023-05-04T20:10:18.961Z,20.01
2023-05-04T20:15:18.807Z,19.80
2023-05-04T20:20:19.720Z,19.68
2023-05-04T20:25:18.759Z,19.55
2023-05-04T20:30:18.628Z,19.32
2023-05-04T20:35:18.601Z,19.26
2023-05-04T20:40:18.475Z,19.25
2023-05-04T20:45:18.440Z,19.10
2023-05-04T20:50:18.424Z,19.06
2023-05-04T20:55:18.299Z,18.95
2023-05-04T21:00:18.347Z,18.82
2023-05-04T21:05:18.334Z,18.98
2023-05-04T21:10:18.164Z,19.04
2023-05-04T21:15:18.138Z,18.95
2023-05-04T21:20:18.109Z,18.94
2023-05-04T21:25:18.050Z,19.16
2023-05-04T21:30:17.968Z,19.13
2023-05-04T21:35:17.889Z,19.06
2023-05-04T21:40:17.826Z,19.18
2023-05-04T21:45:17.808Z,19.36
2023-05-04T21:50:17.742Z,19.40
2023-05-04T21:55:17.716Z,19.33
2023-05-04T22:00:17.637Z,19.50
2023-05-04T22:05:17.589Z,19.71
2023-05-04T22:10:17.527Z,19.58
2023-05-04T22:15:17.460Z,19.55
2023-05-04T22:20:17.545Z,19.69
2023-05-04T22:25:17.453Z,19.69
2023-05-04T22:30:17.398Z,19.55
2023-05-04T22:35:17.216Z,19.46
2023-05-04T22:40:17.178Z,19.43
2023-05-04T22:45:17.157Z,19.73
2023-05-04T22:50:17.068Z,19.61
2023-05-04T22:55:17.042Z,19.44
2023-05-04T23:00:16.997Z,19.11
2023-05-04T23:05:17.036Z,19.07
2023-05-04T23:10:16.940Z,18.88
2023-05-04T23:15:16.881Z,18.84
2023-05-04T23:20:16.893Z,18.65
2023-05-04T23:25:16.803Z,18.75
2023-05-04T23:30:16.734Z,18.52
2023-05-04T23:35:16.620Z,18.50
2023-05-04T23:40:16.539Z,18.62
2023-05-04T23:45:16.473Z,18.63
2023-05-04T23:50:16.402Z,18.55
2023-05-04T23:55:16.456Z,18.48
